Latest Coastal Weather Observations for Flinders Island Airport

IDT60701

Issued at 4:32 pm EST Tuesday 16 August 2022 (issued every 10 minutes, with the page automatically refreshed every 10 minutes)

About coastal observations | Map of coastal stations | Coastal observations for TAS | Marine services | Other Formats
Station Details ID: 099005 Name: FLINDERS ISLAND AIRPORT Lat: -40.09 Lon: 148.00 Height: 9.0 m
Data from the previous 72 hours. | See also: Recent months at Flinders Island Airport
Date/Time
EST
Wind Sea
Height
m
Swell Vis
km
Cloud Weather Temp
°C
Press
MSL
hPa
Rain since
9am
mm
Dir  Spd
kts
Gust
kts
Height
m
Period
s
Dir
16/04:30pm WSW 10 13 - - - - 10 Clear - 13.4 1009.6 0.0
16/04:00pm WSW 11 16 - - - - 10 - - 13.8 1008.9 0.0
16/03:30pm SW 14 17 - - - - 10 - - 13.6 1008.8 0.0
16/03:00pm SW 15 19 - - - - 10 - - 13.8 1008.6 0.0
16/02:30pm WSW 12 16 - - - - 10 - - 14.2 1008.4 0.0
16/02:00pm WSW 9 11 - - - - 10 - - 13.6 1007.7 0.0
16/01:30pm SW 11 13 - - - - 10 - - 13.7 1007.4 0.0
16/01:00pm SW 11 16 - - - - 10 Partly cloudy - 13.9 1007.1 0.0
16/12:53pm SW 11 15 - - - - 10 Partly cloudy - 13.9 1007.2 0.0
16/12:30pm SW 8 10 - - - - 10 Partly cloudy - 13.6 1007.5 0.0
16/12:10pm WSW 10 13 - - - - 10 Partly cloudy - 13.5 1007.2 0.0
16/12:00pm WSW 11 15 - - - - 10 Partly cloudy - 13.5 1007.3 0.0
16/11:30am WSW 13 15 - - - - 10 Partly cloudy - 13.9 1007.4 0.0
16/11:00am WSW 13 17 - - - - 10 Partly cloudy - 13.3 1007.3 0.0
16/10:30am WSW 13 16 - - - - 10 Partly cloudy - 14.0 1006.7 0.0
16/10:00am WSW 13 17 - - - - 10 Partly cloudy - 13.5 1006.1 0.0
16/09:30am SW 8 9 - - - - 10 Partly cloudy - 13.3 1005.7 0.0
16/09:00am SW 8 11 - - - - 10 - - 12.8 1005.5 4.2
16/08:30am SW 10 13 - - - - 10 - - 12.3 1004.9 4.2
16/08:23am SW 9 12 - - - - 10 Partly cloudy - 12.1 1004.7 4.2
16/08:00am SW 5 5 - - - - 10 Partly cloudy - 11.8 1004.3 4.2
16/07:50am S 1 4 - - - - 10 Partly cloudy - 12.0 1004.0 4.2
16/07:30am S 4 6 - - - - 10 Cloudy - 11.3 1003.7 4.2
16/07:00am SW 7 9 - - - - 10 Cloudy - 11.6 1003.0 4.2
16/06:30am SW 8 10 - - - - 10 Partly cloudy - 11.7 1002.5 4.2
16/06:29am SW 8 10 - - - - 10 Partly cloudy - 11.8 1002.4 4.2
16/06:00am W 6 8 - - - - 10 Cloudy - 11.4 1002.1 4.2
16/05:30am W 12 15 - - - - 10 Cloudy - 11.8 1001.5 4.2
16/05:00am W 10 13 - - - - 10 Cloudy - 11.6 1000.9 4.2
16/04:30am W 10 13 - - - - 10 Partly cloudy - 11.6 1000.5 4.2
16/04:00am W 10 13 - - - - 10 Cloudy - 11.8 1000.3 4.2
16/03:30am WNW 10 14 - - - - 10 Cloudy - 11.8 1000.0 4.2
16/03:00am WNW 12 16 - - - - 10 Cloudy - 11.7 999.9 4.2
16/02:46am WNW 13 15 - - - - 10 Partly cloudy - 11.7 999.8 4.2
16/02:33am WNW 11 15 - - - - 10 Partly cloudy - 11.4 999.8 4.2
16/02:30am WNW 11 14 - - - - 10 Partly cloudy - 11.4 999.8 4.2
16/02:00am WNW 12 16 - - - - 10 Cloudy - 11.6 999.8 4.2
16/01:40am WNW 11 15 - - - - 10 Partly cloudy - 11.6 999.6 4.2
16/01:30am WNW 12 17 - - - - 10 Partly cloudy - 11.7 999.6 4.2
16/01:00am WNW 15 19 - - - - 10 Partly cloudy - 11.7 999.4 4.2
16/12:30am WNW 14 18 - - - - 10 Cloudy - 11.9 999.1 4.2
16/12:00am W 14 17 - - - - 10 Mostly cloudy - 11.7 998.7 4.2
 
Date/Time
EST
Wind Sea
Height
m
Swell Vis
km
Cloud Weather Temp
°C
Press
MSL
hPa
Rain since
9am
mm
Dir  Spd
kts
Gust
kts
Height
m
Period
s
Dir
15/11:47pm W 15 20 - - - - 10 Partly cloudy - 11.7 998.7 4.2
15/11:30pm W 13 18 - - - - 10 Partly cloudy - 11.8 998.6 4.2
15/11:27pm W 14 17 - - - - 10 Partly cloudy - 11.8 998.6 4.2
15/11:24pm W 15 18 - - - - 10 Partly cloudy - 11.8 998.6 4.2
15/11:00pm W 16 20 - - - - 10 Partly cloudy - 11.7 998.5 4.2
15/10:57pm W 15 20 - - - - 10 Partly cloudy - 11.7 998.4 4.2
15/10:45pm W 14 18 - - - - 10 Partly cloudy - 11.7 998.4 4.0
15/10:32pm W 15 19 - - - - 5 Partly cloudy - 11.5 998.4 3.8
15/10:30pm W 14 19 - - - - 6 Partly cloudy - 11.5 998.4 3.8
15/10:29pm W 14 19 - - - - 6 Partly cloudy - 11.5 998.4 3.8
15/10:28pm W 14 19 - - - - 6 Partly cloudy - 11.5 998.4 3.8
15/10:09pm W 18 23 - - - - 3 Partly cloudy - 11.4 998.3 3.2
15/10:03pm WNW 17 23 - - - - 5 Partly cloudy - 11.4 998.2 2.6
15/10:00pm WNW 16 21 - - - - 10 Partly cloudy - 11.4 998.2 2.0
15/09:30pm WNW 17 22 - - - - 10 Partly cloudy - 11.7 998.1 2.0
15/09:24pm WNW 16 21 - - - - 10 Partly cloudy - 11.7 998.1 2.0
15/09:09pm WNW 15 19 - - - - 10 Partly cloudy - 11.9 998.1 2.0
15/09:00pm WNW 15 20 - - - - 10 Cloudy - 11.8 998.0 2.0
15/08:50pm WNW 16 21 - - - - 10 Partly cloudy - 11.8 998.0 2.0
15/08:30pm WNW 14 18 - - - - 10 Partly cloudy - 11.9 997.9 2.0
15/08:08pm WNW 16 20 - - - - 10 Partly cloudy - 11.8 997.7 2.0
15/08:00pm WNW 17 21 - - - - 10 Partly cloudy - 11.8 997.6 2.0
15/07:30pm WNW 16 23 - - - - 10 Partly cloudy - 11.7 997.4 1.8
15/07:00pm WNW 17 23 - - - - 10 Partly cloudy - 11.6 997.0 1.8
15/06:51pm WNW 17 22 - - - - 10 Partly cloudy - 11.6 996.9 1.8
15/06:30pm WNW 17 20 - - - - 10 Partly cloudy - 11.6 996.5 1.8
15/06:25pm W 17 21 - - - - 10 Partly cloudy - 11.6 996.5 1.6
15/06:00pm WNW 21 28 - - - - 10 Cloudy Rain 11.8 996.2 1.6
15/05:53pm WNW 20 26 - - - - 10 Partly cloudy - 11.8 996.0 1.6
15/05:30pm WNW 19 25 - - - - 10 Partly cloudy - 11.7 995.6 1.6
15/05:00pm WNW 19 26 - - - - 10 Partly cloudy - 11.7 995.1 1.6
15/04:30pm WNW 21 29 - - - - 10 Partly cloudy - 11.9 994.9 1.6
15/04:15pm WNW 19 29 - - - - 10 Partly cloudy - 11.8 994.9 1.6
15/04:00pm WNW 20 27 - - - - 10 Partly cloudy - 12.0 994.8 1.6
15/03:30pm WNW 18 25 - - - - 10 Partly cloudy - 12.2 994.8 1.6
15/03:06pm WNW 17 23 - - - - 10 Partly cloudy - 12.1 994.9 1.6
15/03:00pm WNW 17 22 - - - - 10 Cloudy - 12.1 994.9 1.6
15/02:42pm WNW 19 26 - - - - 10 Partly cloudy - 12.2 994.7 1.6
15/02:30pm NW 19 23 - - - - - Partly cloudy - 11.9 994.7 1.6
15/02:24pm NW 18 22 - - - - 10 Partly cloudy - 11.8 994.7 1.6
15/02:00pm WNW 18 24 - - - - 10 Partly cloudy - 11.8 994.4 1.6
15/01:30pm WNW 18 24 - - - - 10 Partly cloudy - 11.5 994.6 1.6
15/01:16pm NW 16 20 - - - - 10 Partly cloudy - 11.3 994.8 1.6
15/01:00pm WNW 17 26 - - - - 3 Partly cloudy - 11.2 994.9 1.6
15/12:52pm WNW 17 22 - - - - 5 Partly cloudy - 12.1 994.8 1.2
15/12:51pm NW 18 25 - - - - 6 Partly cloudy - 12.2 994.8 1.2
15/12:30pm NW 18 23 - - - - 10 Partly cloudy - 13.3 995.0 1.2
15/12:00pm NW 16 21 - - - - 10 Cloudy Rain 12.8 995.3 1.2
15/11:59am NW 16 21 - - - - 10 Partly cloudy - 12.5 995.3 1.2
15/11:38am W 16 22 - - - - 5 Partly cloudy - 11.6 995.7 0.6
15/11:31am W 11 18 - - - - 10 Partly cloudy - 12.9 995.7 0.4
15/11:30am W 11 17 - - - - 10 Partly cloudy - 13.0 995.6 0.4
15/11:00am WNW 13 19 - - - - 10 Partly cloudy - 12.3 995.9 0.2
15/10:31am WNW 13 18 - - - - 10 Partly cloudy - 12.4 995.9 0.2
15/10:30am WNW 13 18 - - - - 10 Partly cloudy - 12.3 995.9 0.2
15/10:00am WNW 13 18 - - - - 10 Partly cloudy - 12.0 996.0 0.2
15/09:30am NW 11 15 - - - - 10 Partly cloudy - 11.7 996.1 0.2
15/09:22am WNW 10 15 - - - - 7 Partly cloudy - 11.7 996.1 0.2
15/09:01am NW 9 13 - - - - 10 Partly cloudy - 11.8 996.1 0.0
15/09:00am NW 9 13 - - - - 10 Cloudy Rain 11.8 996.1 27.0
15/08:50am NW 9 12 - - - - 10 Partly cloudy - 11.4 996.1 27.0
15/08:30am NW 12 16 - - - - 2 Partly cloudy - 11.3 996.1 26.8
15/08:17am NW 9 15 - - - - 5 Partly cloudy - 11.6 996.0 25.8
15/08:04am NW 8 11 - - - - 10 Partly cloudy - 11.5 995.9 25.6
15/08:00am NW 9 12 - - - - 10 Partly cloudy - 11.4 995.9 25.6
15/07:52am NW 10 13 - - - - 10 Partly cloudy - 11.4 995.8 25.6
15/07:40am NW 10 14 - - - - 10 Partly cloudy - 11.5 995.8 25.6
15/07:30am NW 9 15 - - - - 5 Partly cloudy - 11.4 995.8 25.6
15/07:29am NNW 8 15 - - - - 4 Partly cloudy - 11.4 995.7 25.6
15/07:09am NW 8 11 - - - - 5 Partly cloudy - 11.3 995.7 24.2
15/07:00am NNW 7 11 - - - - 10 Partly cloudy - 11.3 995.7 23.8
15/06:59am NW 7 11 - - - - 10 Partly cloudy - 11.3 995.7 23.8
15/06:51am NW 7 9 - - - - 10 Partly cloudy - 11.3 995.7 23.8
15/06:39am NW 7 10 - - - - 5 Partly cloudy - 11.5 995.6 23.8
15/06:34am NW 6 10 - - - - 5 Partly cloudy - 11.6 995.6 23.8
15/06:30am NW 6 8 - - - - 10 Partly cloudy - 11.5 995.5 23.0
15/06:00am NW 8 10 - - - - 10 Cloudy - 11.5 995.4 23.0
15/05:30am NW 7 9 - - - - 10 Partly cloudy - 11.7 995.3 23.0
15/05:25am NNW 7 9 - - - - 10 Partly cloudy - 11.6 995.3 23.0
15/05:10am NNW 7 11 - - - - 10 Partly cloudy - 11.7 995.3 23.0
15/05:00am NNW 7 9 - - - - 10 Partly cloudy - 11.6 995.3 23.0
15/04:31am NNW 7 9 - - - - 10 Partly cloudy - 11.5 995.3 23.0
15/04:30am NNW 7 10 - - - - 10 Partly cloudy - 11.6 995.3 23.0
15/04:02am N 6 9 - - - - 10 Partly cloudy - 11.8 995.2 23.0
15/04:00am N 6 9 - - - - 10 Partly cloudy - 11.9 995.2 23.0
15/03:30am NNW 6 8 - - - - 10 Partly cloudy - 11.4 995.1 23.0
15/03:22am NNW 7 9 - - - - 10 Partly cloudy - 11.4 995.2 23.0
15/03:00am NW 7 11 - - - - 10 Cloudy Showers 11.7 995.3 23.0
15/02:30am NNW 7 14 - - - - 6 Partly cloudy - 11.8 995.3 22.8
15/02:00am NNW 8 11 - - - - 10 Partly cloudy - 11.7 995.5 22.6
15/01:30am NNW 9 14 - - - - 10 Partly cloudy - 11.8 995.5 22.6
15/01:00am NNW 9 13 - - - - 10 Partly cloudy - 11.7 995.4 22.6
15/12:30am NNW 6 9 - - - - 10 Partly cloudy - 11.5 995.3 22.6
15/12:23am NNW 7 9 - - - - 10 Partly cloudy - 11.5 995.3 22.6
15/12:13am NNW 9 12 - - - - 5 Partly cloudy - 11.6 995.3 22.4
15/12:00am NNW 8 12 - - - - 10 Cloudy Showers 11.6 995.2 22.4
 
Date/Time
EST
Wind Sea
Height
m
Swell Vis
km
Cloud Weather Temp
°C
Press
MSL
hPa
Rain since
9am
mm
Dir  Spd
kts
Gust
kts
Height
m
Period
s
Dir
14/11:30pm NNW 9 15 - - - - 10 Partly cloudy - 11.8 995.0 22.4
14/11:00pm N 9 14 - - - - 10 Partly cloudy - 11.9 994.9 22.4
14/10:30pm N 9 11 - - - - 6 Partly cloudy - 12.0 994.7 21.6
14/10:00pm NNE 9 12 - - - - 10 Cloudy - 12.1 994.6 21.4
14/09:30pm N 8 14 - - - - 10 Cloudy - 12.0 994.4 21.4
14/09:00pm N 9 15 - - - - 10 Cloudy - 12.0 994.1 21.4
14/08:30pm N 9 15 - - - - 10 Cloudy - 11.9 993.8 21.4
14/08:00pm N 10 16 - - - - 10 Cloudy - 11.7 993.6 21.4
14/07:37pm N 13 18 - - - - 10 Cloudy - 11.6 993.4 21.4
14/07:30pm N 10 18 - - - - 8 Cloudy - 11.6 993.2 21.4
14/07:00pm N 12 17 - - - - 3 Partly cloudy - 11.4 992.8 20.0
14/06:54pm N 12 18 - - - - 3 Partly cloudy - 11.4 992.7 19.8
14/06:30pm NNW 12 18 - - - - 3 Partly cloudy - 11.1 992.5 18.0
14/06:08pm NW 15 22 - - - - 2 Partly cloudy - 10.7 992.3 17.0
14/06:00pm NW 17 22 - - - - 2 Cloudy Rain 11.0 992.2 16.6
14/05:43pm NNW 15 22 - - - - 2 Partly cloudy - 11.4 991.9 14.0
14/05:37pm NW 16 22 - - - - 2 Partly cloudy - 11.3 991.8 12.8
14/05:30pm NW 16 20 - - - - 3 Partly cloudy - 11.4 991.7 10.8
14/05:26pm NW 16 20 - - - - 4 Partly cloudy - 11.4 991.6 9.8
14/05:23pm NW 17 22 - - - - 5 Partly cloudy - 11.4 991.6 9.6
14/05:04pm NW 17 20 - - - - 5 Partly cloudy - 11.7 991.3 8.2
14/05:00pm WNW 16 19 - - - - 8 Partly cloudy - 11.7 991.2 8.2
14/04:30pm WNW 17 22 - - - - 9 Cloudy - 11.9 990.9 7.8
14/04:00pm WNW 15 20 - - - - 10 Cloudy - 11.8 990.7 7.6
14/03:30pm W 17 21 - - - - 7 Partly cloudy - 11.8 990.5 7.6
14/03:26pm W 19 23 - - - - 6 Partly cloudy - 11.9 990.4 7.6
14/03:00pm WNW 20 26 - - - - 3 Cloudy Rain 11.8 990.5 7.4
14/02:30pm W 21 29 - - - - 4 Partly cloudy - 11.6 990.5 6.8
14/02:00pm WSW 23 29 - - - - 3 Partly cloudy - 11.7 990.6 6.0
14/01:46pm WSW 24 29 - - - - 5 Partly cloudy - 12.0 990.7 5.8
14/01:30pm W 23 28 - - - - 10 Cloudy - 11.8 990.8 5.8
14/01:26pm WSW 23 28 - - - - 10 Cloudy - 11.8 990.8 5.8
14/01:00pm WSW 21 28 - - - - 3 Cloudy - 11.3 991.1 5.8
14/12:30pm WSW 23 29 - - - - 2 Partly cloudy - 11.3 991.4 5.4
14/12:00pm WSW 19 25 - - - - 2 Cloudy Showers 11.6 992.2 3.8
14/11:40am SW 18 24 - - - - 5 Partly cloudy - 11.8 992.5 3.0
14/11:37am SW 17 21 - - - - 7 Partly cloudy - 11.9 992.5 2.8
14/11:30am SW 18 22 - - - - 8 Partly cloudy - 11.7 992.7 2.6
14/11:00am SW 16 21 - - - - 10 Partly cloudy - 12.2 993.1 2.6
14/10:31am SSW 17 23 - - - - 10 Partly cloudy - 11.9 993.4 2.6
14/10:30am SSW 16 23 - - - - 10 Partly cloudy - 11.9 993.4 2.6
14/10:08am SSW 18 22 - - - - 5 Partly cloudy - 12.1 993.7 0.8
14/10:00am SSW 19 22 - - - - 10 Partly cloudy - 12.4 993.5 0.0
14/09:30am SSW 16 19 - - - - 10 Partly cloudy - 12.5 993.8 0.0
14/09:06am S 13 17 - - - - 10 Partly cloudy - 12.2 994.1 0.0
14/09:00am S 14 18 - - - - 10 Mostly cloudy Showers 12.3 994.2 29.0
14/08:44am SSW 13 17 - - - - 5 Partly cloudy - 12.2 994.4 28.8
14/08:30am SSW 9 13 - - - - 10 Partly cloudy - 12.4 994.4 28.8
14/08:00am S 8 14 - - - - 10 Partly cloudy - 11.9 994.6 28.8
14/07:30am SSE 7 10 - - - - 10 Partly cloudy - 11.9 994.8 28.8
14/07:00am S 10 16 - - - - 10 Partly cloudy - 12.0 994.9 28.8
14/06:57am S 10 16 - - - - 10 Partly cloudy - 12.1 994.9 28.8
14/06:30am SSE 6 9 - - - - 5 Partly cloudy - 12.3 995.0 27.2
14/06:14am SSE 9 16 - - - - 5 Partly cloudy - 12.3 995.1 26.4
14/06:00am SSE 8 11 - - - - 10 Cloudy Showers 12.3 995.0 25.2
14/05:30am SSE 5 8 - - - - 10 Partly cloudy - 12.5 995.4 25.0
14/05:00am SE 6 10 - - - - 10 Partly cloudy - 12.6 995.6 25.0
14/04:30am SE 7 12 - - - - 10 Partly cloudy - 12.5 995.9 24.8
14/04:13am SE 7 14 - - - - 10 Partly cloudy - 12.7 996.2 24.8
14/04:00am ESE 7 15 - - - - 6 Partly cloudy - 12.8 996.3 24.8
14/03:30am S 9 14 - - - - 10 Partly cloudy - 12.3 996.8 24.6
14/03:08am SSW 24 34 - - - - 10 Partly cloudy - 11.7 997.1 24.6
14/03:04am SSW 26 34 - - - - 10 Partly cloudy - 11.5 997.1 24.6
14/03:00am SSW 25 34 - - - - 10 Cloudy Rain 11.4 997.2 24.6
14/02:30am SSW 21 31 - - - - 3 Partly cloudy - 11.2 997.6 23.8
14/02:28am SSW 21 31 - - - - 3 Partly cloudy - 11.2 997.6 23.8
14/02:00am SW 23 30 - - - - 2 Partly cloudy - 11.0 998.9 19.4
14/01:30am SW 26 32 - - - - 3 Cloudy - 10.9 999.5 14.0
14/01:00am SSW 23 31 - - - - 3 Cloudy - 10.9 1000.4 12.2
14/12:30am SSW 24 31 - - - - 5 Cloudy - 11.1 1001.1 10.8
14/12:00am SSW 25 32 - - - - 2 Mostly cloudy Rain 11.0 1001.9 8.8
 
Date/Time
EST
Wind Sea
Height
m
Swell Vis
km
Cloud Weather Temp
°C
Press
MSL
hPa
Rain since
9am
mm
Dir  Spd
kts
Gust
kts
Height
m
Period
s
Dir
13/11:30pm SSW 21 27 - - - - 4 Cloudy - 11.0 1003.2 4.6
13/11:00pm SSW 20 29 - - - - 5 Cloudy - 11.1 1004.4 2.4
13/10:58pm SSW 20 29 - - - - 5 Cloudy - 11.2 1004.5 2.2
13/10:30pm SSW 19 26 - - - - 9 Cloudy - 11.3 1005.5 1.0
13/10:00pm S 15 20 - - - - 10 Partly cloudy - 11.5 1006.3 0.2
13/09:59pm S 15 20 - - - - 10 Partly cloudy - 11.5 1006.3 0.2
13/09:30pm S 17 24 - - - - 10 Partly cloudy - 12.0 1007.0 0.0
13/09:12pm S 16 28 - - - - 10 Partly cloudy - 12.1 1007.3 0.0
13/09:00pm SSE 12 21 - - - - 10 Cloudy - 12.2 1007.6 0.0
13/08:30pm SSE 12 20 - - - - 10 Partly cloudy - 12.1 1008.1 0.0
13/08:00pm S 14 20 - - - - 10 Partly cloudy - 12.5 1008.7 0.0
13/07:59pm S 14 20 - - - - 10 Partly cloudy - 12.4 1008.7 0.0
13/07:30pm SSE 6 9 - - - - 10 Partly cloudy - 12.3 1009.2 0.0
13/07:00pm S 7 9 - - - - 10 Partly cloudy - 12.4 1009.7 0.0
13/06:30pm SSE 10 19 - - - - 10 Partly cloudy - 12.5 1010.1 0.0
13/06:00pm SE 8 15 - - - - 10 Mostly cloudy - 12.2 1010.6 0.0
13/05:30pm SE 7 14 - - - - 10 Partly cloudy - 12.2 1010.8 0.0
13/05:00pm SE 7 10 - - - - 10 Partly cloudy - 12.3 1011.3 0.0

Other formats

Comma delimited format used in spreadsheet applications
http://www.bom.gov.au/fwo/IDT60701/IDT60701.94980.axf

JavaScript Object Notation format (JSON) in row-major order
http://www.bom.gov.au/fwo/IDT60701/IDT60701.94980.json

Data quality

Most of these data are generated automatically and are frequently updated. Quality checks on data are not normally performed. It is possible for incorrect values to appear. Refer to information at About Latest Weather Observations and please check the disclaimer before using these data.